sensor_id;sensor_type;location;lat;lon;timestamp;P1;durP1;ratioP1;P2;durP2;ratioP2
61505;SDS011;47366;51.916;4.574;2022-11-12T00:00:28;6.30;;;3.65;;
61505;SDS011;47366;51.916;4.574;2022-11-12T00:02:54;8.38;;;4.20;;
61505;SDS011;47366;51.916;4.574;2022-11-12T00:05:19;6.10;;;3.60;;
61505;SDS011;47366;51.916;4.574;2022-11-12T00:07:45;6.82;;;3.25;;
61505;SDS011;47366;51.916;4.574;2022-11-12T00:10:10;6.07;;;3.33;;
61505;SDS011;47366;51.916;4.574;2022-11-12T00:12:35;13.00;;;3.05;;
61505;SDS011;47366;51.916;4.574;2022-11-12T00:15:01;6.68;;;3.15;;
61505;SDS011;47366;51.916;4.574;2022-11-12T00:17:26;7.70;;;3.47;;
61505;SDS011;47366;51.916;4.574;2022-11-12T00:19:52;7.25;;;3.70;;
61505;SDS011;47366;51.916;4.574;2022-11-12T00:22:18;9.57;;;3.25;;
61505;SDS011;47366;51.916;4.574;2022-11-12T00:24:44;5.10;;;3.25;;
61505;SDS011;47366;51.916;4.574;2022-11-12T00:27:09;6.07;;;2.75;;
61505;SDS011;47366;51.916;4.574;2022-11-12T00:29:34;7.15;;;3.15;;
61505;SDS011;47366;51.916;4.574;2022-11-12T00:32:00;6.03;;;3.03;;
61505;SDS011;47366;51.916;4.574;2022-11-12T00:34:25;10.45;;;4.05;;
61505;SDS011;47366;51.916;4.574;2022-11-12T00:36:50;6.40;;;2.95;;
61505;SDS011;47366;51.916;4.574;2022-11-12T00:39:16;7.72;;;3.45;;
61505;SDS011;47366;51.916;4.574;2022-11-12T00:41:41;9.48;;;3.30;;
61505;SDS011;47366;51.916;4.574;2022-11-12T00:44:06;4.63;;;3.03;;
61505;SDS011;47366;51.916;4.574;2022-11-12T00:46:32;3.80;;;2.70;;
61505;SDS011;47366;51.916;4.574;2022-11-12T00:48:57;9.80;;;3.75;;
61505;SDS011;47366;51.916;4.574;2022-11-12T00:51:22;3.90;;;2.47;;
61505;SDS011;47366;51.916;4.574;2022-11-12T00:53:48;4.55;;;2.72;;
61505;SDS011;47366;51.916;4.574;2022-11-12T00:56:14;6.10;;;3.35;;
61505;SDS011;47366;51.916;4.574;2022-11-12T00:58:40;5.13;;;3.20;;
61505;SDS011;47366;51.916;4.574;2022-11-12T01:01:06;5.82;;;3.17;;
61505;SDS011;47366;51.916;4.574;2022-11-12T01:03:33;5.20;;;3.28;;
61505;SDS011;47366;51.916;4.574;2022-11-12T01:06:41;5.68;;;3.03;;
61505;SDS011;47366;51.916;4.574;2022-11-12T01:08:48;4.60;;;2.97;;
61505;SDS011;47366;51.916;4.574;2022-11-12T01:11:15;5.28;;;3.40;;
61505;SDS011;47366;51.916;4.574;2022-11-12T01:13:43;6.55;;;3.10;;
61505;SDS011;47366;51.916;4.574;2022-11-12T01:16:15;5.38;;;2.85;;
61505;SDS011;47366;51.916;4.574;2022-11-12T01:18:44;4.80;;;2.85;;
61505;SDS011;47366;51.916;4.574;2022-11-12T01:21:09;5.72;;;3.25;;
61505;SDS011;47366;51.916;4.574;2022-11-12T01:23:36;4.65;;;2.80;;
61505;SDS011;47366;51.916;4.574;2022-11-12T01:26:03;5.45;;;2.72;;
61505;SDS011;47366;51.916;4.574;2022-11-12T01:28:29;5.75;;;2.88;;
61505;SDS011;47366;51.916;4.574;2022-11-12T01:30:55;4.85;;;2.45;;
61505;SDS011;47366;51.916;4.574;2022-11-12T01:33:20;4.60;;;3.13;;
61505;SDS011;47366;51.916;4.574;2022-11-12T01:35:45;6.70;;;3.08;;
61505;SDS011;47366;51.916;4.574;2022-11-12T01:38:11;5.88;;;2.85;;
61505;SDS011;47366;51.916;4.574;2022-11-12T01:40:36;6.00;;;3.03;;
61505;SDS011;47366;51.916;4.574;2022-11-12T01:43:01;6.38;;;3.53;;
61505;SDS011;47366;51.916;4.574;2022-11-12T01:45:27;7.18;;;3.13;;
61505;SDS011;47366;51.916;4.574;2022-11-12T01:47:53;5.57;;;3.38;;
61505;SDS011;47366;51.916;4.574;2022-11-12T01:50:31;4.90;;;3.30;;
61505;SDS011;47366;51.916;4.574;2022-11-12T01:53:04;6.40;;;3.30;;
61505;SDS011;47366;51.916;4.574;2022-11-12T01:55:33;4.32;;;2.65;;
61505;SDS011;47366;51.916;4.574;2022-11-12T01:58:05;4.93;;;2.72;;
61505;SDS011;47366;51.916;4.574;2022-11-12T02:00:37;6.72;;;3.10;;
61505;SDS011;47366;51.916;4.574;2022-11-12T02:03:05;9.90;;;3.38;;
61505;SDS011;47366;51.916;4.574;2022-11-12T02:05:36;6.20;;;2.55;;
61505;SDS011;47366;51.916;4.574;2022-11-12T02:08:03;5.43;;;3.67;;
61505;SDS011;47366;51.916;4.574;2022-11-12T02:10:31;5.15;;;2.63;;
61505;SDS011;47366;51.916;4.574;2022-11-12T02:12:58;5.40;;;3.08;;
61505;SDS011;47366;51.916;4.574;2022-11-12T02:15:43;7.20;;;3.65;;
61505;SDS011;47366;51.916;4.574;2022-11-12T02:18:08;6.72;;;3.80;;
61505;SDS011;47366;51.916;4.574;2022-11-12T02:20:34;7.20;;;3.58;;
61505;SDS011;47366;51.916;4.574;2022-11-12T02:23:01;6.95;;;3.55;;
61505;SDS011;47366;51.916;4.574;2022-11-12T02:25:27;4.88;;;3.53;;
61505;SDS011;47366;51.916;4.574;2022-11-12T02:27:53;5.22;;;3.13;;
61505;SDS011;47366;51.916;4.574;2022-11-12T02:30:34;7.88;;;3.92;;
61505;SDS011;47366;51.916;4.574;2022-11-12T02:33:08;5.28;;;3.25;;
61505;SDS011;47366;51.916;4.574;2022-11-12T02:35:33;4.88;;;3.10;;
61505;SDS011;47366;51.916;4.574;2022-11-12T02:37:59;7.93;;;3.95;;
61505;SDS011;47366;51.916;4.574;2022-11-12T02:40:24;9.15;;;4.53;;
61505;SDS011;47366;51.916;4.574;2022-11-12T02:42:50;6.63;;;3.75;;
61505;SDS011;47366;51.916;4.574;2022-11-12T02:45:15;6.13;;;3.33;;
61505;SDS011;47366;51.916;4.574;2022-11-12T02:47:42;8.20;;;3.65;;
61505;SDS011;47366;51.916;4.574;2022-11-12T02:50:07;5.43;;;3.33;;
61505;SDS011;47366;51.916;4.574;2022-11-12T02:52:33;6.47;;;3.88;;
61505;SDS011;47366;51.916;4.574;2022-11-12T02:54:59;6.18;;;3.33;;
61505;SDS011;47366;51.916;4.574;2022-11-12T02:57:25;7.43;;;3.70;;
61505;SDS011;47366;51.916;4.574;2022-11-12T02:59:50;7.22;;;4.18;;
61505;SDS011;47366;51.916;4.574;2022-11-12T03:02:15;6.65;;;3.72;;
61505;SDS011;47366;51.916;4.574;2022-11-12T03:04:41;6.50;;;4.03;;
61505;SDS011;47366;51.916;4.574;2022-11-12T03:07:06;6.30;;;3.72;;
61505;SDS011;47366;51.916;4.574;2022-11-12T03:09:32;6.75;;;4.03;;
61505;SDS011;47366;51.916;4.574;2022-11-12T03:11:58;6.00;;;3.53;;
61505;SDS011;47366;51.916;4.574;2022-11-12T03:14:23;7.05;;;3.63;;
61505;SDS011;47366;51.916;4.574;2022-11-12T03:16:49;5.65;;;3.60;;
61505;SDS011;47366;51.916;4.574;2022-11-12T03:19:15;6.43;;;3.35;;
61505;SDS011;47366;51.916;4.574;2022-11-12T03:21:40;7.30;;;3.67;;
61505;SDS011;47366;51.916;4.574;2022-11-12T03:24:06;9.55;;;4.50;;
61505;SDS011;47366;51.916;4.574;2022-11-12T03:26:31;6.88;;;3.78;;
61505;SDS011;47366;51.916;4.574;2022-11-12T03:28:56;7.28;;;4.55;;
61505;SDS011;47366;51.916;4.574;2022-11-12T03:31:22;6.13;;;4.03;;
61505;SDS011;47366;51.916;4.574;2022-11-12T03:33:47;9.15;;;4.97;;
61505;SDS011;47366;51.916;4.574;2022-11-12T03:36:12;6.22;;;3.70;;
61505;SDS011;47366;51.916;4.574;2022-11-12T03:38:37;6.97;;;4.03;;
61505;SDS011;47366;51.916;4.574;2022-11-12T03:41:03;7.55;;;3.40;;
61505;SDS011;47366;51.916;4.574;2022-11-12T03:43:28;5.25;;;3.22;;
61505;SDS011;47366;51.916;4.574;2022-11-12T03:45:54;7.13;;;3.83;;
61505;SDS011;47366;51.916;4.574;2022-11-12T03:48:19;6.95;;;3.35;;
61505;SDS011;47366;51.916;4.574;2022-11-12T03:50:44;5.57;;;3.33;;
61505;SDS011;47366;51.916;4.574;2022-11-12T03:53:10;7.95;;;3.20;;
61505;SDS011;47366;51.916;4.574;2022-11-12T03:55:35;5.63;;;2.85;;
61505;SDS011;47366;51.916;4.574;2022-11-12T03:58:01;5.80;;;3.85;;
61505;SDS011;47366;51.916;4.574;2022-11-12T04:00:26;8.02;;;4.13;;
61505;SDS011;47366;51.916;4.574;2022-11-12T04:02:52;5.43;;;3.67;;
61505;SDS011;47366;51.916;4.574;2022-11-12T04:05:18;6.32;;;3.70;;
61505;SDS011;47366;51.916;4.574;2022-11-12T04:08:06;3.72;;;2.63;;
61505;SDS011;47366;51.916;4.574;2022-11-12T04:10:55;5.13;;;3.22;;
61505;SDS011;47366;51.916;4.574;2022-11-12T04:13:21;8.70;;;3.45;;
61505;SDS011;47366;51.916;4.574;2022-11-12T04:18:51;5.93;;;3.80;;
61505;SDS011;47366;51.916;4.574;2022-11-12T04:21:44;5.85;;;3.63;;
61505;SDS011;47366;51.916;4.574;2022-11-12T04:27:12;4.75;;;3.10;;
61505;SDS011;47366;51.916;4.574;2022-11-12T04:29:43;4.70;;;3.47;;
61505;SDS011;47366;51.916;4.574;2022-11-12T04:32:28;9.93;;;4.40;;
61505;SDS011;47366;51.916;4.574;2022-11-12T04:34:54;5.90;;;4.18;;
61505;SDS011;47366;51.916;4.574;2022-11-12T04:37:21;7.13;;;3.72;;
61505;SDS011;47366;51.916;4.574;2022-11-12T04:39:47;6.38;;;3.75;;
61505;SDS011;47366;51.916;4.574;2022-11-12T04:42:13;9.10;;;3.55;;
61505;SDS011;47366;51.916;4.574;2022-11-12T04:44:57;6.00;;;3.28;;
61505;SDS011;47366;51.916;4.574;2022-11-12T04:47:27;5.72;;;3.65;;
61505;SDS011;47366;51.916;4.574;2022-11-12T04:49:54;9.30;;;4.22;;
61505;SDS011;47366;51.916;4.574;2022-11-12T04:52:19;5.97;;;3.22;;
61505;SDS011;47366;51.916;4.574;2022-11-12T04:54:44;5.45;;;3.67;;
61505;SDS011;47366;51.916;4.574;2022-11-12T04:57:10;5.80;;;3.63;;
61505;SDS011;47366;51.916;4.574;2022-11-12T04:59:35;5.80;;;3.20;;
61505;SDS011;47366;51.916;4.574;2022-11-12T05:02:00;7.13;;;3.28;;
61505;SDS011;47366;51.916;4.574;2022-11-12T05:04:26;6.22;;;3.67;;
61505;SDS011;47366;51.916;4.574;2022-11-12T05:06:53;5.20;;;3.15;;
61505;SDS011;47366;51.916;4.574;2022-11-12T05:09:20;4.47;;;3.00;;
61505;SDS011;47366;51.916;4.574;2022-11-12T05:11:47;5.90;;;3.28;;
61505;SDS011;47366;51.916;4.574;2022-11-12T05:14:13;7.15;;;3.47;;
61505;SDS011;47366;51.916;4.574;2022-11-12T05:16:38;8.57;;;3.90;;
61505;SDS011;47366;51.916;4.574;2022-11-12T05:19:04;7.57;;;3.70;;
61505;SDS011;47366;51.916;4.574;2022-11-12T05:21:30;3.90;;;2.90;;
61505;SDS011;47366;51.916;4.574;2022-11-12T05:24:14;5.78;;;3.08;;
61505;SDS011;47366;51.916;4.574;2022-11-12T05:26:39;4.82;;;3.25;;
61505;SDS011;47366;51.916;4.574;2022-11-12T05:29:06;5.47;;;3.15;;
61505;SDS011;47366;51.916;4.574;2022-11-12T05:31:32;5.18;;;2.97;;
61505;SDS011;47366;51.916;4.574;2022-11-12T05:33:58;4.50;;;3.30;;
61505;SDS011;47366;51.916;4.574;2022-11-12T05:36:23;6.65;;;3.35;;
61505;SDS011;47366;51.916;4.574;2022-11-12T05:38:48;5.80;;;3.00;;
61505;SDS011;47366;51.916;4.574;2022-11-12T05:41:14;4.63;;;3.17;;
61505;SDS011;47366;51.916;4.574;2022-11-12T05:43:39;9.80;;;4.15;;
61505;SDS011;47366;51.916;4.574;2022-11-12T05:46:04;4.10;;;2.85;;
61505;SDS011;47366;51.916;4.574;2022-11-12T05:48:30;5.82;;;3.13;;
61505;SDS011;47366;51.916;4.574;2022-11-12T05:50:55;6.60;;;3.80;;
61505;SDS011;47366;51.916;4.574;2022-11-12T05:53:21;5.97;;;3.17;;
61505;SDS011;47366;51.916;4.574;2022-11-12T05:55:46;4.43;;;2.90;;
61505;SDS011;47366;51.916;4.574;2022-11-12T05:58:11;4.82;;;3.30;;
61505;SDS011;47366;51.916;4.574;2022-11-12T06:00:37;3.78;;;2.42;;
61505;SDS011;47366;51.916;4.574;2022-11-12T06:03:09;3.45;;;2.60;;
61505;SDS011;47366;51.916;4.574;2022-11-12T06:05:36;6.70;;;3.30;;
61505;SDS011;47366;51.916;4.574;2022-11-12T06:08:02;5.65;;;3.20;;
61505;SDS011;47366;51.916;4.574;2022-11-12T06:10:29;5.05;;;3.25;;
61505;SDS011;47366;51.916;4.574;2022-11-12T06:12:56;6.50;;;3.53;;
61505;SDS011;47366;51.916;4.574;2022-11-12T06:15:22;7.72;;;4.20;;
61505;SDS011;47366;51.916;4.574;2022-11-12T06:17:50;5.32;;;3.10;;
61505;SDS011;47366;51.916;4.574;2022-11-12T06:20:16;9.07;;;3.85;;
61505;SDS011;47366;51.916;4.574;2022-11-12T06:22:42;5.25;;;3.15;;
61505;SDS011;47366;51.916;4.574;2022-11-12T06:25:07;6.45;;;3.78;;
61505;SDS011;47366;51.916;4.574;2022-11-12T06:27:32;9.70;;;4.00;;
61505;SDS011;47366;51.916;4.574;2022-11-12T06:29:58;7.63;;;3.85;;
61505;SDS011;47366;51.916;4.574;2022-11-12T06:32:23;6.38;;;3.33;;
61505;SDS011;47366;51.916;4.574;2022-11-12T06:34:49;5.50;;;3.50;;
61505;SDS011;47366;51.916;4.574;2022-11-12T06:37:16;8.88;;;4.40;;
61505;SDS011;47366;51.916;4.574;2022-11-12T06:39:42;5.57;;;3.33;;
61505;SDS011;47366;51.916;4.574;2022-11-12T06:42:07;5.70;;;3.72;;
61505;SDS011;47366;51.916;4.574;2022-11-12T06:44:32;7.55;;;3.63;;
61505;SDS011;47366;51.916;4.574;2022-11-12T06:46:58;8.38;;;4.10;;
61505;SDS011;47366;51.916;4.574;2022-11-12T06:49:23;5.38;;;3.72;;
61505;SDS011;47366;51.916;4.574;2022-11-12T06:51:49;4.88;;;3.38;;
61505;SDS011;47366;51.916;4.574;2022-11-12T06:54:15;9.35;;;4.30;;
61505;SDS011;47366;51.916;4.574;2022-11-12T06:56:40;7.28;;;3.65;;
61505;SDS011;47366;51.916;4.574;2022-11-12T06:59:06;7.13;;;3.63;;
61505;SDS011;47366;51.916;4.574;2022-11-12T07:01:31;5.90;;;3.13;;
61505;SDS011;47366;51.916;4.574;2022-11-12T07:03:56;5.43;;;3.20;;
61505;SDS011;47366;51.916;4.574;2022-11-12T07:06:22;10.98;;;3.67;;
61505;SDS011;47366;51.916;4.574;2022-11-12T07:08:48;7.35;;;3.78;;
61505;SDS011;47366;51.916;4.574;2022-11-12T07:11:17;6.72;;;4.63;;
61505;SDS011;47366;51.916;4.574;2022-11-12T07:13:44;6.68;;;4.03;;
61505;SDS011;47366;51.916;4.574;2022-11-12T07:16:10;15.30;;;4.00;;
61505;SDS011;47366;51.916;4.574;2022-11-12T07:18:36;8.23;;;4.43;;
61505;SDS011;47366;51.916;4.574;2022-11-12T07:21:03;7.35;;;4.93;;
61505;SDS011;47366;51.916;4.574;2022-11-12T07:23:30;7.25;;;3.83;;
61505;SDS011;47366;51.916;4.574;2022-11-12T07:28:29;7.70;;;4.57;;
61505;SDS011;47366;51.916;4.574;2022-11-12T07:30:55;15.23;;;5.47;;
61505;SDS011;47366;51.916;4.574;2022-11-12T07:33:22;10.85;;;5.13;;
61505;SDS011;47366;51.916;4.574;2022-11-12T07:35:48;12.35;;;4.88;;
61505;SDS011;47366;51.916;4.574;2022-11-12T07:38:13;8.80;;;4.47;;
61505;SDS011;47366;51.916;4.574;2022-11-12T07:40:38;9.68;;;4.97;;
61505;SDS011;47366;51.916;4.574;2022-11-12T07:43:04;11.95;;;5.70;;
61505;SDS011;47366;51.916;4.574;2022-11-12T07:45:29;7.68;;;5.15;;
61505;SDS011;47366;51.916;4.574;2022-11-12T07:47:57;11.73;;;5.80;;
61505;SDS011;47366;51.916;4.574;2022-11-12T07:50:23;11.38;;;4.57;;
61505;SDS011;47366;51.916;4.574;2022-11-12T07:52:48;11.05;;;4.90;;
61505;SDS011;47366;51.916;4.574;2022-11-12T07:55:14;7.65;;;4.53;;
61505;SDS011;47366;51.916;4.574;2022-11-12T07:57:39;11.80;;;5.50;;
61505;SDS011;47366;51.916;4.574;2022-11-12T08:00:04;7.50;;;4.38;;
61505;SDS011;47366;51.916;4.574;2022-11-12T08:02:31;6.75;;;3.90;;
61505;SDS011;47366;51.916;4.574;2022-11-12T08:04:56;5.97;;;3.88;;
61505;SDS011;47366;51.916;4.574;2022-11-12T08:07:21;6.88;;;4.25;;
61505;SDS011;47366;51.916;4.574;2022-11-12T08:09:47;7.28;;;4.63;;
61505;SDS011;47366;51.916;4.574;2022-11-12T08:12:12;8.77;;;5.95;;
61505;SDS011;47366;51.916;4.574;2022-11-12T08:14:37;6.45;;;3.13;;
61505;SDS011;47366;51.916;4.574;2022-11-12T08:17:03;6.75;;;4.05;;
61505;SDS011;47366;51.916;4.574;2022-11-12T08:19:28;11.18;;;5.25;;
61505;SDS011;47366;51.916;4.574;2022-11-12T08:21:53;9.00;;;4.50;;
61505;SDS011;47366;51.916;4.574;2022-11-12T08:24:19;12.55;;;4.82;;
61505;SDS011;47366;51.916;4.574;2022-11-12T08:26:45;7.38;;;4.35;;
61505;SDS011;47366;51.916;4.574;2022-11-12T08:29:10;6.25;;;3.83;;
61505;SDS011;47366;51.916;4.574;2022-11-12T08:31:36;9.57;;;4.50;;
61505;SDS011;47366;51.916;4.574;2022-11-12T08:34:01;6.35;;;4.40;;
61505;SDS011;47366;51.916;4.574;2022-11-12T08:36:36;10.10;;;4.57;;
61505;SDS011;47366;51.916;4.574;2022-11-12T08:39:01;9.50;;;5.22;;
61505;SDS011;47366;51.916;4.574;2022-11-12T08:41:27;6.10;;;3.78;;
61505;SDS011;47366;51.916;4.574;2022-11-12T08:43:52;9.13;;;5.13;;
61505;SDS011;47366;51.916;4.574;2022-11-12T08:46:17;10.27;;;5.45;;
61505;SDS011;47366;51.916;4.574;2022-11-12T08:48:43;8.82;;;5.80;;
61505;SDS011;47366;51.916;4.574;2022-11-12T08:51:08;9.10;;;5.15;;
61505;SDS011;47366;51.916;4.574;2022-11-12T08:53:33;8.80;;;5.28;;
61505;SDS011;47366;51.916;4.574;2022-11-12T08:55:59;8.65;;;5.30;;
61505;SDS011;47366;51.916;4.574;2022-11-12T08:58:25;8.23;;;4.85;;
61505;SDS011;47366;51.916;4.574;2022-11-12T09:00:51;7.68;;;4.18;;
61505;SDS011;47366;51.916;4.574;2022-11-12T09:03:18;9.45;;;5.22;;
61505;SDS011;47366;51.916;4.574;2022-11-12T09:05:45;5.80;;;3.78;;
61505;SDS011;47366;51.916;4.574;2022-11-12T09:08:12;11.38;;;5.28;;
61505;SDS011;47366;51.916;4.574;2022-11-12T09:10:39;12.35;;;6.45;;
61505;SDS011;47366;51.916;4.574;2022-11-12T09:13:05;11.60;;;5.18;;
61505;SDS011;47366;51.916;4.574;2022-11-12T09:15:30;14.07;;;4.82;;
61505;SDS011;47366;51.916;4.574;2022-11-12T09:17:57;11.80;;;5.25;;
61505;SDS011;47366;51.916;4.574;2022-11-12T09:20:24;9.27;;;5.10;;
61505;SDS011;47366;51.916;4.574;2022-11-12T09:22:50;8.38;;;4.93;;
61505;SDS011;47366;51.916;4.574;2022-11-12T09:25:16;12.02;;;5.55;;
61505;SDS011;47366;51.916;4.574;2022-11-12T09:27:42;9.20;;;4.50;;
61505;SDS011;47366;51.916;4.574;2022-11-12T09:30:07;9.65;;;4.53;;
61505;SDS011;47366;51.916;4.574;2022-11-12T09:32:33;13.82;;;6.05;;
61505;SDS011;47366;51.916;4.574;2022-11-12T09:34:58;7.57;;;4.80;;
61505;SDS011;47366;51.916;4.574;2022-11-12T09:37:23;10.43;;;4.82;;
61505;SDS011;47366;51.916;4.574;2022-11-12T09:39:49;9.10;;;5.00;;
61505;SDS011;47366;51.916;4.574;2022-11-12T09:42:15;10.75;;;4.78;;
61505;SDS011;47366;51.916;4.574;2022-11-12T09:44:45;9.45;;;5.22;;
61505;SDS011;47366;51.916;4.574;2022-11-12T09:52:30;7.13;;;4.55;;
61505;SDS011;47366;51.916;4.574;2022-11-12T09:55:01;9.30;;;5.63;;
61505;SDS011;47366;51.916;4.574;2022-11-12T09:57:37;12.90;;;5.18;;
61505;SDS011;47366;51.916;4.574;2022-11-12T10:00:36;12.48;;;4.43;;
61505;SDS011;47366;51.916;4.574;2022-11-12T10:03:19;6.85;;;4.28;;
61505;SDS011;47366;51.916;4.574;2022-11-12T10:06:13;8.13;;;3.92;;
61505;SDS011;47366;51.916;4.574;2022-11-12T10:17:52;6.18;;;4.07;;
61505;SDS011;47366;51.916;4.574;2022-11-12T10:20:40;9.80;;;4.28;;
61505;SDS011;47366;51.916;4.574;2022-11-12T10:23:21;14.20;;;4.93;;
61505;SDS011;47366;51.916;4.574;2022-11-12T10:25:51;9.52;;;4.15;;
61505;SDS011;47366;51.916;4.574;2022-11-12T10:28:29;9.75;;;4.10;;
61505;SDS011;47366;51.916;4.574;2022-11-12T10:31:04;10.93;;;4.43;;
61505;SDS011;47366;51.916;4.574;2022-11-12T10:33:35;11.30;;;4.05;;
61505;SDS011;47366;51.916;4.574;2022-11-12T10:36:10;7.70;;;4.00;;
61505;SDS011;47366;51.916;4.574;2022-11-12T10:38:41;7.40;;;4.03;;
61505;SDS011;47366;51.916;4.574;2022-11-12T10:41:25;7.00;;;4.13;;
61505;SDS011;47366;51.916;4.574;2022-11-12T10:43:59;6.60;;;3.80;;
61505;SDS011;47366;51.916;4.574;2022-11-12T10:46:27;7.43;;;3.95;;
61505;SDS011;47366;51.916;4.574;2022-11-12T10:48:58;5.32;;;3.03;;
61505;SDS011;47366;51.916;4.574;2022-11-12T10:51:39;5.57;;;2.78;;
61505;SDS011;47366;51.916;4.574;2022-11-12T10:56:53;6.03;;;2.80;;
61505;SDS011;47366;51.916;4.574;2022-11-12T10:59:19;7.93;;;2.70;;
61505;SDS011;47366;51.916;4.574;2022-11-12T11:01:52;4.53;;;2.35;;
61505;SDS011;47366;51.916;4.574;2022-11-12T11:09:38;8.38;;;3.60;;
61505;SDS011;47366;51.916;4.574;2022-11-12T11:12:23;6.15;;;2.78;;
61505;SDS011;47366;51.916;4.574;2022-11-12T11:17:48;7.93;;;2.90;;
61505;SDS011;47366;51.916;4.574;2022-11-12T11:20:24;5.00;;;2.63;;
61505;SDS011;47366;51.916;4.574;2022-11-12T11:22:55;5.32;;;3.08;;
61505;SDS011;47366;51.916;4.574;2022-11-12T11:25:26;6.93;;;2.72;;
61505;SDS011;47366;51.916;4.574;2022-11-12T11:30:33;7.90;;;2.88;;
61505;SDS011;47366;51.916;4.574;2022-11-12T11:33:29;4.57;;;2.88;;
61505;SDS011;47366;51.916;4.574;2022-11-12T11:38:48;3.47;;;2.07;;
61505;SDS011;47366;51.916;4.574;2022-11-12T11:57:36;5.93;;;2.60;;
61505;SDS011;47366;51.916;4.574;2022-11-12T12:00:20;6.03;;;2.50;;
61505;SDS011;47366;51.916;4.574;2022-11-12T12:06:18;2.78;;;1.58;;
61505;SDS011;47366;51.916;4.574;2022-11-12T12:11:53;3.92;;;1.98;;
61505;SDS011;47366;51.916;4.574;2022-11-12T12:14:39;2.28;;;1.33;;
61505;SDS011;47366;51.916;4.574;2022-11-12T12:17:56;4.47;;;2.03;;
61505;SDS011;47366;51.916;4.574;2022-11-12T12:23:05;5.50;;;2.45;;
61505;SDS011;47366;51.916;4.574;2022-11-12T12:25:40;4.47;;;1.85;;
61505;SDS011;47366;51.916;4.574;2022-11-12T12:30:41;3.92;;;2.00;;
61505;SDS011;47366;51.916;4.574;2022-11-12T12:35:54;5.60;;;2.63;;
61505;SDS011;47366;51.916;4.574;2022-11-12T12:38:31;4.88;;;2.55;;
61505;SDS011;47366;51.916;4.574;2022-11-12T12:43:37;4.35;;;2.20;;
61505;SDS011;47366;51.916;4.574;2022-11-12T12:46:09;3.33;;;1.83;;
61505;SDS011;47366;51.916;4.574;2022-11-12T12:48:41;7.13;;;2.70;;
61505;SDS011;47366;51.916;4.574;2022-11-12T12:51:09;3.90;;;2.30;;
61505;SDS011;47366;51.916;4.574;2022-11-12T12:53:35;4.05;;;2.20;;
61505;SDS011;47366;51.916;4.574;2022-11-12T12:56:04;3.55;;;1.95;;
61505;SDS011;47366;51.916;4.574;2022-11-12T12:58:32;4.03;;;2.45;;
61505;SDS011;47366;51.916;4.574;2022-11-12T13:01:09;4.22;;;2.60;;
61505;SDS011;47366;51.916;4.574;2022-11-12T13:03:58;4.90;;;2.25;;
61505;SDS011;47366;51.916;4.574;2022-11-12T13:06:28;5.10;;;2.50;;
61505;SDS011;47366;51.916;4.574;2022-11-12T13:38:33;4.47;;;2.58;;
61505;SDS011;47366;51.916;4.574;2022-11-12T13:45:52;4.55;;;2.38;;
61505;SDS011;47366;51.916;4.574;2022-11-12T13:48:26;4.63;;;2.58;;
61505;SDS011;47366;51.916;4.574;2022-11-12T13:50:55;6.68;;;2.85;;
61505;SDS011;47366;51.916;4.574;2022-11-12T13:53:27;9.95;;;4.03;;
61505;SDS011;47366;51.916;4.574;2022-11-12T13:55:57;5.65;;;3.22;;
61505;SDS011;47366;51.916;4.574;2022-11-12T13:58:27;8.35;;;3.75;;
61505;SDS011;47366;51.916;4.574;2022-11-12T14:00:54;10.37;;;4.50;;
61505;SDS011;47366;51.916;4.574;2022-11-12T14:03:22;12.95;;;5.50;;
61505;SDS011;47366;51.916;4.574;2022-11-12T14:05:49;11.90;;;4.75;;
61505;SDS011;47366;51.916;4.574;2022-11-12T14:08:33;17.05;;;6.03;;
61505;SDS011;47366;51.916;4.574;2022-11-12T14:22:18;6.93;;;2.85;;
61505;SDS011;47366;51.916;4.574;2022-11-12T14:24:45;7.65;;;3.78;;
61505;SDS011;47366;51.916;4.574;2022-11-12T14:27:22;7.20;;;3.40;;
61505;SDS011;47366;51.916;4.574;2022-11-12T14:30:03;9.90;;;3.45;;
61505;SDS011;47366;51.916;4.574;2022-11-12T14:32:53;11.15;;;4.18;;
61505;SDS011;47366;51.916;4.574;2022-11-12T14:35:32;6.75;;;3.10;;
61505;SDS011;47366;51.916;4.574;2022-11-12T14:38:22;10.02;;;3.63;;
61505;SDS011;47366;51.916;4.574;2022-11-12T14:40:56;11.20;;;3.53;;
61505;SDS011;47366;51.916;4.574;2022-11-12T14:43:25;6.90;;;3.45;;
61505;SDS011;47366;51.916;4.574;2022-11-12T14:46:33;10.77;;;4.50;;
61505;SDS011;47366;51.916;4.574;2022-11-12T14:49:02;9.98;;;3.75;;
61505;SDS011;47366;51.916;4.574;2022-11-12T14:51:39;9.05;;;4.30;;
61505;SDS011;47366;51.916;4.574;2022-11-12T14:54:14;7.15;;;3.75;;
61505;SDS011;47366;51.916;4.574;2022-11-12T14:56:46;8.88;;;3.80;;
61505;SDS011;47366;51.916;4.574;2022-11-12T14:59:13;8.73;;;3.65;;
61505;SDS011;47366;51.916;4.574;2022-11-12T15:01:40;6.93;;;3.38;;
61505;SDS011;47366;51.916;4.574;2022-11-12T15:04:34;9.38;;;3.88;;
61505;SDS011;47366;51.916;4.574;2022-11-12T15:07:02;6.32;;;3.67;;
61505;SDS011;47366;51.916;4.574;2022-11-12T15:09:31;6.85;;;3.72;;
61505;SDS011;47366;51.916;4.574;2022-11-12T15:12:02;5.72;;;3.30;;
61505;SDS011;47366;51.916;4.574;2022-11-12T15:14:29;7.82;;;3.38;;
61505;SDS011;47366;51.916;4.574;2022-11-12T15:16:54;5.40;;;3.08;;
61505;SDS011;47366;51.916;4.574;2022-11-12T15:19:26;4.47;;;2.97;;
61505;SDS011;47366;51.916;4.574;2022-11-12T15:21:59;4.97;;;2.95;;
61505;SDS011;47366;51.916;4.574;2022-11-12T15:26:57;6.25;;;3.45;;
61505;SDS011;47366;51.916;4.574;2022-11-12T15:29:33;5.78;;;3.13;;
61505;SDS011;47366;51.916;4.574;2022-11-12T15:32:27;5.57;;;3.40;;
61505;SDS011;47366;51.916;4.574;2022-11-12T15:34:48;7.22;;;2.72;;
61505;SDS011;47366;51.916;4.574;2022-11-12T15:39:45;5.68;;;3.05;;
61505;SDS011;47366;51.916;4.574;2022-11-12T15:45:02;5.72;;;3.17;;
61505;SDS011;47366;51.916;4.574;2022-11-12T15:47:33;8.18;;;3.92;;
61505;SDS011;47366;51.916;4.574;2022-11-12T15:49:58;18.98;;;7.30;;
61505;SDS011;47366;51.916;4.574;2022-11-12T15:52:24;40.42;;;12.35;;
61505;SDS011;47366;51.916;4.574;2022-11-12T15:54:49;28.98;;;10.05;;
61505;SDS011;47366;51.916;4.574;2022-11-12T16:00:12;16.40;;;6.68;;
61505;SDS011;47366;51.916;4.574;2022-11-12T16:02:39;9.15;;;3.80;;
61505;SDS011;47366;51.916;4.574;2022-11-12T16:05:07;6.97;;;3.85;;
61505;SDS011;47366;51.916;4.574;2022-11-12T16:07:36;6.90;;;3.40;;
61505;SDS011;47366;51.916;4.574;2022-11-12T16:10:02;6.78;;;3.78;;
61505;SDS011;47366;51.916;4.574;2022-11-12T16:12:28;10.73;;;4.20;;
61505;SDS011;47366;51.916;4.574;2022-11-12T16:14:53;7.90;;;4.15;;
61505;SDS011;47366;51.916;4.574;2022-11-12T16:17:19;6.28;;;3.58;;
61505;SDS011;47366;51.916;4.574;2022-11-12T16:19:45;7.53;;;4.13;;
61505;SDS011;47366;51.916;4.574;2022-11-12T16:22:10;6.90;;;3.72;;
61505;SDS011;47366;51.916;4.574;2022-11-12T16:24:39;6.00;;;3.75;;
61505;SDS011;47366;51.916;4.574;2022-11-12T16:27:04;7.20;;;4.35;;
61505;SDS011;47366;51.916;4.574;2022-11-12T16:29:33;7.50;;;3.70;;
61505;SDS011;47366;51.916;4.574;2022-11-12T16:31:59;6.45;;;3.72;;
61505;SDS011;47366;51.916;4.574;2022-11-12T16:34:24;6.15;;;3.63;;
61505;SDS011;47366;51.916;4.574;2022-11-12T16:36:49;5.45;;;3.38;;
61505;SDS011;47366;51.916;4.574;2022-11-12T16:39:15;6.15;;;3.40;;
61505;SDS011;47366;51.916;4.574;2022-11-12T16:41:40;9.35;;;3.45;;
61505;SDS011;47366;51.916;4.574;2022-11-12T16:44:05;7.22;;;3.83;;
61505;SDS011;47366;51.916;4.574;2022-11-12T16:46:33;6.90;;;4.25;;
61505;SDS011;47366;51.916;4.574;2022-11-12T16:51:28;5.72;;;3.00;;
61505;SDS011;47366;51.916;4.574;2022-11-12T16:53:54;7.43;;;3.42;;
61505;SDS011;47366;51.916;4.574;2022-11-12T16:56:20;9.57;;;3.92;;
61505;SDS011;47366;51.916;4.574;2022-11-12T16:58:46;8.30;;;3.70;;
61505;SDS011;47366;51.916;4.574;2022-11-12T17:01:13;9.23;;;3.60;;
61505;SDS011;47366;51.916;4.574;2022-11-12T17:03:47;6.88;;;4.22;;
61505;SDS011;47366;51.916;4.574;2022-11-12T17:06:14;11.55;;;4.45;;